Time;durP1;ratioP1;P1;durP2;ratioP2;P2;SDS_P1;SDS_P2;PMS_P1;PMS_P2;Temp;Humidity;BMP_temperature;BMP_pressure;BME280_temperature;BME280_humidity;BME280_pressure;Samples;Min_cycle;Max_cycle;Signal;HPM_P1;HPM_P2
2021/12/30 00:02:11;;;;;;;40.72;29.00;;;;;;;6.99;85.01;101205.34;4963377;28;20053;-82
2021/12/30 00:04:38;;;;;;;45.35;29.08;;;;;;;6.85;85.41;101165.78;4963706;28;20495;-82
2021/12/30 00:07:04;;;;;;;42.28;26.27;;;;;;;6.46;85.39;101090.00;4963646;28;20130;-83
2021/12/30 00:09:31;;;;;;;40.95;27.70;;;;;;;6.93;85.11;101184.59;4963367;28;20047;-85
2021/12/30 00:11:57;;;;;;;41.83;26.83;;;;;;;6.49;85.68;101122.34;4949125;28;20059;-82
2021/12/30 00:14:39;;;;;;;36.30;24.90;;;;;;;7.00;85.07;101207.03;4947930;29;20055;-83
2021/12/30 00:17:05;;;;;;;34.10;23.30;;;;;;;6.87;85.21;101184.16;4947416;29;20486;-84
2021/12/30 00:19:32;;;;;;;33.35;23.70;;;;;;;7.02;85.00;101214.84;4947506;29;20059;-82
2021/12/30 00:21:59;;;;;;;28.52;22.02;;;;;;;6.54;84.48;101162.44;4947227;29;20503;-84
2021/12/30 00:24:26;;;;;;;29.55;23.08;;;;;;;6.15;85.06;101102.50;4947594;29;20464;-83
2021/12/30 00:26:55;;;;;;;28.63;21.27;;;;;;;6.72;85.20;101189.44;4948943;28;20047;-83
2021/12/30 00:29:24;;;;;;;39.15;21.17;;;;;;;6.87;84.51;101205.25;4963506;28;20142;-82
2021/12/30 00:31:51;;;;;;;34.22;21.15;;;;;;;6.71;85.01;101194.84;4948863;28;20346;-83
2021/12/30 00:34:20;;;;;;;27.33;20.77;;;;;;;6.44;84.29;101149.94;4947260;29;20158;-82
2021/12/30 00:36:47;;;;;;;28.23;20.17;;;;;;;6.49;84.42;101167.16;4948873;28;20144;-83
2021/12/30 00:39:16;;;;;;;29.08;20.70;;;;;;;6.76;84.69;101203.31;4965582;28;20048;-82
2021/12/30 00:41:42;;;;;;;27.35;20.08;;;;;;;6.19;84.55;101099.59;4952432;28;20044;-82
2021/12/30 00:44:09;;;;;;;23.85;19.05;;;;;;;6.71;84.23;101200.13;4951217;29;20138;-80
2021/12/30 00:46:38;;;;;;;28.42;18.60;;;;;;;6.58;84.36;101171.88;4950882;29;20055;-83
2021/12/30 00:49:06;;;;;;;21.90;18.17;;;;;;;6.49;84.47;101177.72;4967226;28;20057;-82
2021/12/30 00:51:35;;;;;;;30.02;20.25;;;;;;;6.68;84.68;101216.16;4967187;28;20051;-84
2021/12/30 00:54:02;;;;;;;23.02;19.27;;;;;;;6.45;84.67;101184.13;4951092;29;20054;-82
2021/12/30 00:56:29;;;;;;;23.13;19.10;;;;;;;6.50;85.49;101179.41;4952474;28;20051;-83
2021/12/30 00:58:56;;;;;;;20.38;17.73;;;;;;;6.67;84.88;101228.47;4952228;28;20051;-83
2021/12/30 01:01:24;;;;;;;24.73;19.42;;;;;;;6.57;84.73;101212.38;4950619;29;20055;-83
2021/12/30 01:03:52;;;;;;;26.60;18.25;;;;;;;6.63;84.81;101230.47;4966872;28;20138;-83
2021/12/30 01:06:18;;;;;;;29.70;18.75;;;;;;;6.66;83.97;101225.94;4950863;29;20047;-82
2021/12/30 01:08:45;;;;;;;25.73;18.30;;;;;;;6.61;83.91;101215.69;4950528;29;20050;-83
2021/12/30 01:11:12;;;;;;;27.05;18.63;;;;;;;6.52;84.23;101196.00;4966291;28;20177;-83
2021/12/30 01:13:43;;;;;;;24.77;19.40;;;;;;;6.57;84.59;101215.00;4966517;28;20059;-83
2021/12/30 01:16:19;;;;;;;25.50;19.80;;;;;;;6.64;84.28;101226.03;4951930;28;20047;-84
2021/12/30 01:19:15;;;;;;;28.50;19.25;;;;;;;6.45;84.90;101196.47;4966504;28;20047;-84
2021/12/30 01:21:42;;;;;;;27.63;18.60;;;;;;;6.39;85.04;101187.16;4966022;28;20047;-84
2021/12/30 01:24:09;;;;;;;26.70;18.00;;;;;;;6.53;84.50;101226.72;4966404;28;20133;-84
2021/12/30 01:26:36;;;;;;;20.65;17.50;;;;;;;6.57;84.38;101230.84;4966263;28;20138;-83
2021/12/30 01:29:03;;;;;;;23.00;18.48;;;;;;;6.25;84.45;101188.00;4966136;28;20086;-83
2021/12/30 01:31:29;;;;;;;22.30;17.25;;;;;;;5.50;84.10;101066.06;4966173;28;20145;-82
2021/12/30 01:34:16;;;;;;;19.70;16.40;;;;;;;5.52;84.31;101075.56;4963724;28;20055;-82
2021/12/30 01:36:43;;;;;;;22.55;18.10;;;;;;;6.09;83.69;101161.75;4950939;28;20137;-84
2021/12/30 01:39:09;;;;;;;21.92;18.05;;;;;;;6.53;83.68;101244.31;4950383;29;20106;-84
2021/12/30 01:41:36;;;;;;;28.73;17.92;;;;;;;6.03;84.02;101172.66;4966281;28;20094;-84
2021/12/30 01:44:03;;;;;;;27.17;19.20;;;;;;;6.23;83.81;101212.78;4966758;28;20055;-83
2021/12/30 01:46:40;;;;;;;26.85;18.23;;;;;;;6.43;83.85;101246.66;4967479;28;20093;-84
2021/12/30 01:49:08;;;;;;;26.33;19.08;;;;;;;6.37;84.09;101231.25;4955143;28;20055;-84
2021/12/30 01:51:35;;;;;;;29.40;20.00;;;;;;;5.63;84.72;101132.88;4958649;28;20055;-85
2021/12/30 01:54:02;;;;;;;25.60;19.77;;;;;;;6.19;84.69;101241.13;4972748;28;20055;-85
2021/12/30 01:56:29;;;;;;;35.33;19.92;;;;;;;6.14;84.28;101219.44;4954148;28;20051;-81
2021/12/30 01:58:56;;;;;;;23.73;18.33;;;;;;;6.42;84.30;101266.09;4973768;28;20047;-85
2021/12/30 02:01:24;;;;;;;27.50;19.15;;;;;;;6.39;84.53;101269.75;4974288;28;20086;-84
2021/12/30 02:03:51;;;;;;;27.33;21.85;;;;;;;6.41;84.41;101280.22;4972703;28;20055;-84
2021/12/30 02:06:18;;;;;;;27.45;20.17;;;;;;;6.37;85.21;101292.72;4969552;28;20055;-83
2021/12/30 02:08:47;;;;;;;30.45;21.02;;;;;;;6.39;84.98;101284.75;4965696;28;20102;-83
2021/12/30 02:11:13;;;;;;;29.73;21.08;;;;;;;6.39;85.23;101284.75;4950632;28;20471;-84
2021/12/30 02:13:40;;;;;;;30.02;21.38;;;;;;;5.98;85.17;101196.66;4950326;28;20051;-82
2021/12/30 02:16:07;;;;;;;33.33;23.23;;;;;;;6.37;85.58;101255.81;4965145;28;20506;-82
2021/12/30 02:18:33;;;;;;;30.88;21.88;;;;;;;6.16;85.56;101214.91;4948904;29;20138;-83
2021/12/30 02:21:02;;;;;;;31.15;21.90;;;;;;;6.31;85.68;101250.06;4950001;28;20146;-84
2021/12/30 02:23:34;;;;;;;33.90;20.42;;;;;;;5.95;85.77;101188.94;4965226;28;20059;-83
2021/12/30 02:26:07;;;;;;;31.23;20.13;;;;;;;6.41;85.18;101256.50;4949231;29;20062;-84
2021/12/30 02:28:36;;;;;;;30.77;20.83;;;;;;;6.30;85.82;101253.66;4949205;29;20057;-84
2021/12/30 02:31:28;;;;;;;28.35;19.67;;;;;;;6.39;85.95;101280.31;4950178;28;20069;-84
2021/12/30 02:33:58;;;;;;;31.95;21.02;;;;;;;6.39;85.76;101274.19;4948797;29;20043;-84
2021/12/30 02:36:29;;;;;;;27.17;21.40;;;;;;;6.37;85.99;101273.44;4948943;29;20051;-83
2021/12/30 02:38:56;;;;;;;33.67;22.53;;;;;;;6.18;85.31;101242.88;4964997;28;20554;-85
2021/12/30 02:41:24;;;;;;;27.70;21.98;;;;;;;6.56;84.91;101297.75;4949960;28;20387;-84
2021/12/30 02:43:50;;;;;;;33.80;20.90;;;;;;;6.07;84.71;101221.63;4964857;28;20511;-84
2021/12/30 02:46:22;;;;;;;41.78;21.50;;;;;;;6.35;84.04;101273.50;4950309;28;20403;-83
2021/12/30 02:48:52;;;;;;;28.88;22.83;;;;;;;6.32;84.37;101280.78;4949814;28;20503;-83
2021/12/30 02:51:21;;;;;;;23.92;20.60;;;;;;;6.05;84.92;101243.75;4950031;28;20051;-82
2021/12/30 02:53:48;;;;;;;34.90;22.90;;;;;;;6.40;85.06;101315.44;4948564;29;20081;-83
2021/12/30 02:56:15;;;;;;;29.25;22.83;;;;;;;5.76;84.82;101212.84;4949887;28;20102;-82
2021/12/30 02:58:45;;;;;;;29.35;23.67;;;;;;;5.04;85.05;101092.47;4948682;29;20114;-84
2021/12/30 03:01:17;;;;;;;30.60;24.25;;;;;;;6.32;85.57;101294.81;4948060;28;20053;-83
2021/12/30 03:03:44;;;;;;;28.90;21.10;;;;;;;5.72;85.10;101190.25;4947971;29;20074;-84
2021/12/30 03:06:13;;;;;;;27.90;22.70;;;;;;;4.62;85.37;100992.25;4949548;28;20139;-83
2021/12/30 03:08:41;;;;;;;28.83;22.35;;;;;;;6.48;84.95;101297.38;4948095;29;20134;-83
2021/12/30 03:11:09;;;;;;;27.10;21.48;;;;;;;6.51;84.98;101305.09;4948263;29;20570;-83
2021/12/30 03:13:40;;;;;;;31.40;23.08;;;;;;;6.28;85.29;101272.19;4964449;28;20043;-83
2021/12/30 03:16:13;;;;;;;40.40;24.40;;;;;;;6.54;84.26;101315.47;4949492;28;20047;-84
2021/12/30 03:18:44;;;;;;;29.85;22.83;;;;;;;6.38;84.62;101277.75;4964057;28;20069;-83
2021/12/30 03:21:12;;;;;;;30.80;23.55;;;;;;;6.53;84.32;101318.16;4948202;29;20511;-84
2021/12/30 03:23:41;;;;;;;34.38;24.25;;;;;;;6.37;84.35;101294.53;4964113;28;20047;-83
2021/12/30 03:26:09;;;;;;;34.83;25.08;;;;;;;5.76;84.44;101202.31;4964271;28;20070;-84
2021/12/30 03:28:39;;;;;;;31.95;23.20;;;;;;;6.24;84.31;101281.25;4964098;28;20090;-83
2021/12/30 03:31:09;;;;;;;32.05;23.80;;;;;;;6.43;84.23;101331.06;4964230;28;20051;-84
2021/12/30 03:33:37;;;;;;;36.13;24.55;;;;;;;6.42;84.33;101345.22;4964274;28;20051;-82
2021/12/30 03:36:05;;;;;;;34.20;23.38;;;;;;;6.41;84.70;101354.91;4964090;28;20155;-82
2021/12/30 03:38:40;;;;;;;30.33;22.50;;;;;;;5.51;84.53;101202.03;4949784;28;20047;-83
2021/12/30 03:41:09;;;;;;;31.88;23.90;;;;;;;6.01;85.22;101301.03;4949312;28;20563;-85
2021/12/30 03:43:36;;;;;;;29.92;23.42;;;;;;;6.38;85.19;101356.88;4963931;28;20142;-82
2021/12/30 03:46:05;;;;;;;29.85;23.70;;;;;;;6.42;85.63;101361.03;4964134;28;20050;-84
2021/12/30 03:48:34;;;;;;;32.08;24.20;;;;;;;6.39;85.66;101361.22;4964104;28;20422;-83
2021/12/30 03:51:08;;;;;;;27.45;22.20;;;;;;;6.32;84.71;101333.50;4964419;28;20055;-83
2021/12/30 03:53:39;;;;;;;32.10;23.00;;;;;;;5.03;85.12;101133.72;4963948;28;20043;-83
2021/12/30 03:56:06;;;;;;;26.58;20.27;;;;;;;6.42;85.18;101361.03;4947798;29;20051;-82
2021/12/30 03:58:33;;;;;;;27.63;21.17;;;;;;;6.31;84.84;101337.94;4963680;28;20051;-82
2021/12/30 04:01:00;;;;;;;23.65;19.83;;;;;;;6.46;84.66;101346.75;4963674;28;20047;-84
2021/12/30 04:03:27;;;;;;;24.67;20.40;;;;;;;6.53;83.91;101348.06;4964983;28;20325;-83
2021/12/30 04:05:54;;;;;;;25.20;19.38;;;;;;;6.07;83.59;101294.56;4952356;29;20218;-83
2021/12/30 04:08:21;;;;;;;23.83;20.23;;;;;;;6.54;83.74;101378.78;4971318;28;20086;-86
2021/12/30 04:10:48;;;;;;;26.05;22.25;;;;;;;6.23;84.02;101324.34;4961859;28;20066;-84
2021/12/30 04:13:15;;;;;;;25.38;19.90;;;;;;;5.89;84.07;101275.38;4961369;28;20114;-84
2021/12/30 04:15:50;;;;;;;25.75;19.90;;;;;;;5.77;83.86;101261.97;4963841;29;20051;-83
2021/12/30 04:18:16;;;;;;;25.30;19.85;;;;;;;6.51;83.46;101373.69;4965339;28;20047;-83
2021/12/30 04:20:43;;;;;;;27.70;20.67;;;;;;;6.32;83.98;101357.25;4965483;28;20051;-83
2021/12/30 04:23:10;;;;;;;28.52;20.75;;;;;;;6.43;84.21;101373.28;4963336;29;20499;-84
2021/12/30 04:25:36;;;;;;;26.02;21.00;;;;;;;6.43;84.08;101373.28;4961873;29;20051;-84
2021/12/30 04:28:03;;;;;;;23.80;19.95;;;;;;;5.82;84.20;101295.13;4953729;28;20458;-82
2021/12/30 04:30:31;;;;;;;32.33;20.67;;;;;;;6.48;83.88;101396.75;4951097;29;20062;-84
2021/12/30 04:32:58;;;;;;;26.88;20.95;;;;;;;6.41;84.11;101383.94;4967090;28;20051;-82
2021/12/30 04:35:30;;;;;;;27.60;21.42;;;;;;;6.42;84.50;101395.31;4951106;29;20059;-84
2021/12/30 04:37:57;;;;;;;28.67;19.65;;;;;;;6.17;84.67;101367.75;4952039;28;20057;-84
2021/12/30 04:40:23;;;;;;;23.35;18.38;;;;;;;6.20;84.46;101386.03;4951037;29;20051;-82
2021/12/30 04:42:50;;;;;;;25.63;18.33;;;;;;;6.04;84.57;101348.31;4951137;29;20416;-83
2021/12/30 04:45:19;;;;;;;22.35;18.27;;;;;;;6.26;83.93;101373.41;4951392;29;20055;-82
2021/12/30 04:47:51;;;;;;;20.73;18.27;;;;;;;6.28;84.11;101382.94;4952303;28;20144;-82
2021/12/30 04:50:21;;;;;;;;;;;;;;;6.41;83.79;101426.13;4951372;29;20063;-84
2021/12/30 04:52:49;;;;;;;19.90;16.98;;;;;;;6.34;83.81;101418.66;4950924;29;19929;-85
2021/12/30 04:55:16;;;;;;;21.35;18.10;;;;;;;6.15;83.64;101393.34;4951288;29;20436;-83
2021/12/30 04:57:43;;;;;;;25.38;17.70;;;;;;;6.25;83.46;101395.47;4950791;29;20130;-82
2021/12/30 05:00:11;;;;;;;22.33;17.80;;;;;;;6.42;83.73;101419.06;4952092;28;20337;-84
2021/12/30 05:03:08;;;;;;;22.27;18.67;;;;;;;6.24;83.86;101391.13;4950737;29;20145;-83
2021/12/30 05:05:29;;;;;;;20.25;17.42;;;;;;;6.08;84.28;101389.38;4952149;28;20130;-84
2021/12/30 05:07:55;;;;;;;20.20;17.17;;;;;;;6.15;84.17;101405.69;4966452;28;20344;-84
2021/12/30 05:10:22;;;;;;;26.52;18.35;;;;;;;6.30;84.46;101422.41;4965834;28;20471;-84
2021/12/30 05:12:49;;;;;;;23.63;18.77;;;;;;;6.37;83.60;101434.31;4945067;28;20051;-82
2021/12/30 05:15:16;;;;;;;23.13;17.88;;;;;;;6.28;83.37;101419.00;4949310;29;20160;-82
2021/12/30 05:17:43;;;;;;;21.50;17.40;;;;;;;6.14;83.64;101423.31;4948533;29;20161;-83
2021/12/30 05:20:14;;;;;;;22.40;18.65;;;;;;;6.30;83.90;101443.50;4914614;29;20598;-83
2021/12/30 05:22:42;;;;;;;33.13;19.17;;;;;;;6.20;83.98;101422.94;4946522;29;20059;-83
2021/12/30 05:25:11;;;;;;;24.40;18.52;;;;;;;5.99;84.00;101389.91;4941231;28;20066;-83
2021/12/30 05:27:38;;;;;;;23.08;19.08;;;;;;;6.24;84.23;101446.47;4947315;29;20141;-84
2021/12/30 05:30:07;;;;;;;26.23;18.20;;;;;;;5.92;83.94;101417.50;4946860;29;20130;-85
2021/12/30 05:32:35;;;;;;;25.65;18.17;;;;;;;5.71;84.16;101387.94;4943320;28;20137;-85
2021/12/30 05:35:03;;;;;;;24.00;18.17;;;;;;;6.06;84.34;101451.88;4940311;29;20575;-84
2021/12/30 05:37:30;;;;;;;22.35;17.42;;;;;;;6.18;84.58;101482.81;4941422;28;20055;-83
2021/12/30 05:39:59;;;;;;;23.70;16.88;;;;;;;5.98;84.45;101448.84;4927380;29;20495;-83
2021/12/30 05:42:28;;;;;;;25.20;18.52;;;;;;;6.07;85.19;101469.41;4946244;29;20051;-83
2021/12/30 05:44:55;;;;;;;21.70;17.98;;;;;;;5.43;84.41;101357.03;4946408;29;20265;-82
2021/12/30 05:47:22;;;;;;;21.23;16.88;;;;;;;5.99;84.19;101466.34;4946520;28;20059;-83
2021/12/30 05:49:49;;;;;;;25.58;19.00;;;;;;;6.19;84.21;101497.72;4930710;29;20065;-83
2021/12/30 05:52:16;;;;;;;21.42;18.65;;;;;;;6.14;84.08;101497.13;4948324;28;20407;-83
2021/12/30 05:54:43;;;;;;;22.38;17.73;;;;;;;6.28;83.88;101511.31;4949086;29;20297;-84
2021/12/30 05:57:11;;;;;;;22.25;18.60;;;;;;;6.19;84.03;101510.91;4948699;29;20047;-83
2021/12/30 05:59:38;;;;;;;22.58;17.60;;;;;;;6.24;84.20;101512.41;4948844;29;20047;-85
2021/12/30 06:02:05;;;;;;;25.23;17.50;;;;;;;5.50;84.14;101390.00;4964181;28;20059;-83
2021/12/30 06:04:31;;;;;;;19.67;16.48;;;;;;;6.07;84.43;101503.69;4949803;28;20473;-83
2021/12/30 06:06:58;;;;;;;30.40;17.98;;;;;;;5.83;84.40;101454.94;4964266;28;20047;-84
2021/12/30 06:09:27;;;;;;;22.52;17.85;;;;;;;5.51;84.11;101408.34;4964537;28;20058;-81
2021/12/30 06:11:54;;;;;;;25.08;18.42;;;;;;;5.59;84.14;101420.25;4948517;29;20303;-83
2021/12/30 06:14:22;;;;;;;20.50;17.00;;;;;;;5.06;83.81;101332.72;4964933;28;20141;-84
2021/12/30 06:16:49;;;;;;;23.00;17.05;;;;;;;6.19;84.03;101532.00;4949552;29;20055;-82
2021/12/30 06:19:16;;;;;;;19.83;16.42;;;;;;;6.15;84.36;101529.59;4949512;29;20055;-84
2021/12/30 06:21:43;;;;;;;21.58;16.95;;;;;;;6.10;84.32;101529.88;4949433;29;20047;-83
2021/12/30 06:24:09;;;;;;;21.42;17.42;;;;;;;5.92;83.63;101499.19;4951534;28;20058;-82
2021/12/30 06:26:36;;;;;;;21.83;17.52;;;;;;;5.89;83.49;101509.91;4965966;28;20337;-83
2021/12/30 06:29:03;;;;;;;24.08;18.48;;;;;;;6.23;83.91;101552.91;4950347;29;20055;-82
2021/12/30 06:31:30;;;;;;;22.08;18.05;;;;;;;6.11;83.55;101549.16;4951199;29;20138;-83
2021/12/30 06:33:57;;;;;;;24.88;18.67;;;;;;;5.65;83.66;101481.31;4965945;28;20078;-82
2021/12/30 06:36:23;;;;;;;25.50;18.85;;;;;;;6.11;83.92;101560.56;4949350;28;20051;-84
2021/12/30 06:38:51;;;;;;;24.38;19.08;;;;;;;6.05;83.46;101558.25;4965259;28;20491;-83
2021/12/30 06:41:18;;;;;;;24.73;18.25;;;;;;;6.18;83.44;101583.00;4950520;28;20062;-83
2021/12/30 06:43:45;;;;;;;22.90;19.27;;;;;;;6.11;83.11;101576.38;4965458;28;20569;-82
2021/12/30 06:46:11;;;;;;;27.95;19.50;;;;;;;5.91;83.37;101569.53;4964679;28;20138;-83
2021/12/30 06:48:44;;;;;;;27.00;19.65;;;;;;;6.05;84.18;101583.78;4949629;28;20102;-83
2021/12/30 06:51:13;;;;;;;26.55;20.33;;;;;;;6.13;83.44;101577.13;4964130;28;20051;-84
2021/12/30 06:53:40;;;;;;;23.17;18.92;;;;;;;5.94;83.47;101564.09;4963236;28;20083;-81
2021/12/30 06:56:07;;;;;;;25.65;19.85;;;;;;;5.44;84.00;101500.94;4963025;28;20338;-83
2021/12/30 06:58:34;;;;;;;24.95;19.25;;;;;;;6.01;83.94;101604.16;4962841;28;20588;-84
2021/12/30 07:01:02;;;;;;;26.15;19.75;;;;;;;5.89;84.06;101586.34;4963045;28;20305;-84
2021/12/30 07:03:29;;;;;;;26.73;20.08;;;;;;;5.88;84.71;101579.38;4962480;28;20341;-83
2021/12/30 07:05:59;;;;;;;27.48;20.00;;;;;;;5.76;84.10;101578.25;4946761;29;20065;-84
2021/12/30 07:08:28;;;;;;;26.02;19.33;;;;;;;6.05;83.99;101634.72;4963664;28;20551;-83
2021/12/30 07:10:54;;;;;;;22.27;19.50;;;;;;;5.92;84.08;101623.06;4949076;28;20048;-84
2021/12/30 07:13:21;;;;;;;27.27;21.00;;;;;;;6.03;84.63;101636.56;4947942;29;20062;-81
2021/12/30 07:15:47;;;;;;;29.85;22.10;;;;;;;5.63;83.99;101583.31;4964098;28;20074;-83
2021/12/30 07:18:14;;;;;;;34.00;20.63;;;;;;;5.65;84.46;101586.72;4947828;29;20521;-82
2021/12/30 07:20:41;;;;;;;30.40;21.35;;;;;;;5.98;84.01;101642.09;4947536;29;20464;-83
2021/12/30 07:23:08;;;;;;;39.17;21.70;;;;;;;6.02;83.96;101655.97;4947216;29;20099;-85
2021/12/30 07:25:34;;;;;;;32.55;23.60;;;;;;;6.08;84.39;101684.63;4948069;29;20053;-83
2021/12/30 07:28:03;;;;;;;30.63;21.40;;;;;;;6.10;84.18;101668.75;4948249;29;20055;-83
2021/12/30 07:30:30;;;;;;;27.60;22.17;;;;;;;5.82;84.25;101642.94;4952221;28;20080;-81
2021/12/30 07:32:57;;;;;;;29.30;21.08;;;;;;;5.75;85.04;101640.66;4963513;29;20031;-85
2021/12/30 07:35:24;;;;;;;29.00;21.75;;;;;;;5.99;84.85;101674.56;4983084;28;20055;-84
2021/12/30 07:37:51;;;;;;;26.48;20.42;;;;;;;5.95;84.28;101665.97;4964403;28;20047;-84
2021/12/30 07:40:18;;;;;;;26.25;20.38;;;;;;;5.99;84.45;101674.56;4963890;28;20057;-84
2021/12/30 07:42:45;;;;;;;25.40;22.08;;;;;;;6.19;83.99;101694.63;4963835;28;20109;-83
2021/12/30 07:45:12;;;;;;;23.80;19.67;;;;;;;4.88;84.19;101490.66;4963633;28;20047;-84
2021/12/30 07:47:41;;;;;;;22.83;18.35;;;;;;;5.98;83.89;101664.97;4963325;28;20051;-84
2021/12/30 07:50:09;;;;;;;24.08;18.65;;;;;;;6.18;84.48;101692.91;4963312;28;20043;-84
2021/12/30 07:52:37;;;;;;;23.33;18.42;;;;;;;5.90;84.24;101648.69;4963459;28;20157;-84
2021/12/30 07:55:06;;;;;;;23.55;17.67;;;;;;;6.21;84.04;101692.75;4963633;28;20134;-84
2021/12/30 07:57:33;;;;;;;24.38;18.65;;;;;;;6.19;83.38;101695.47;4963332;28;20133;-82
2021/12/30 08:00:00;;;;;;;25.35;17.42;;;;;;;6.06;83.77;101683.00;4948723;28;20134;-84
2021/12/30 08:02:26;;;;;;;21.33;19.02;;;;;;;5.12;84.12;101558.72;4963359;28;20086;-83
2021/12/30 08:04:53;;;;;;;24.15;18.70;;;;;;;5.29;84.23;101571.03;4949206;28;20051;-84
2021/12/30 08:07:22;;;;;;;18.88;15.40;;;;;;;5.71;84.12;101632.97;4949009;28;20075;-83
2021/12/30 08:09:49;;;;;;;19.58;15.80;;;;;;;5.84;82.72;101641.09;4963050;28;20503;-81
2021/12/30 08:12:16;;;;;;;17.00;15.20;;;;;;;5.71;82.88;101630.34;4947560;28;20055;-85
2021/12/30 08:14:43;;;;;;;18.63;15.60;;;;;;;6.04;83.20;101700.69;4946757;29;20070;-83
2021/12/30 08:17:09;;;;;;;18.00;15.27;;;;;;;5.52;82.65;101594.41;4944748;29;20051;-83
2021/12/30 08:19:36;;;;;;;18.27;15.32;;;;;;;5.85;83.47;101653.31;4946031;29;20134;-84
2021/12/30 08:22:03;;;;;;;20.77;16.88;;;;;;;6.13;83.12;101692.31;4961895;28;20079;-84
2021/12/30 08:24:30;;;;;;;21.92;15.68;;;;;;;6.16;83.01;101689.50;4945936;29;20052;-83
2021/12/30 08:27:12;;;;;;;20.08;16.63;;;;;;;5.91;83.36;101663.56;4947222;28;20057;-83
2021/12/30 08:29:39;;;;;;;21.58;15.68;;;;;;;6.26;83.25;101719.72;4946405;29;20061;-84
2021/12/30 08:32:08;;;;;;;19.80;15.63;;;;;;;6.28;83.44;101736.31;4946806;29;20043;-81
2021/12/30 08:34:35;;;;;;;17.52;14.63;;;;;;;6.26;83.14;101732.91;4962796;28;20443;-82
2021/12/30 08:37:01;;;;;;;18.15;15.90;;;;;;;5.11;82.59;101533.34;4948323;28;20574;-82
2021/12/30 08:39:28;;;;;;;19.77;17.05;;;;;;;6.33;82.47;101746.63;4946910;29;20074;-83
2021/12/30 08:41:58;;;;;;;18.10;14.57;;;;;;;5.74;82.77;101640.72;4962556;28;20055;-83
2021/12/30 08:44:26;;;;;;;22.45;17.30;;;;;;;6.18;82.93;101708.72;4947077;29;20142;-82
2021/12/30 08:46:53;;;;;;;20.65;16.58;;;;;;;5.86;81.72;101665.59;4947270;29;20043;-83
2021/12/30 08:49:21;;;;;;;20.67;16.08;;;;;;;6.29;82.25;101763.56;4963162;28;20051;-83
2021/12/30 08:51:48;;;;;;;18.92;15.57;;;;;;;6.28;82.16;101770.59;4948904;28;20051;-82
2021/12/30 08:54:15;;;;;;;18.35;16.27;;;;;;;5.82;81.91;101701.75;4947789;29;20051;-81
2021/12/30 08:56:44;;;;;;;22.40;17.35;;;;;;;6.13;81.93;101737.97;4947011;29;20047;-82
2021/12/30 08:59:11;;;;;;;20.58;16.77;;;;;;;6.23;82.49;101763.88;4946096;28;20059;-83
2021/12/30 09:01:39;;;;;;;23.20;16.70;;;;;;;6.28;82.00;101775.03;4965178;28;20049;-82
2021/12/30 09:04:05;;;;;;;21.58;16.50;;;;;;;6.32;82.55;101789.75;4949950;29;20230;-84
2021/12/30 09:06:32;;;;;;;21.77;16.08;;;;;;;6.40;81.80;101793.69;4951512;28;20110;-83
2021/12/30 09:08:59;;;;;;;16.85;14.63;;;;;;;6.37;81.72;101788.59;4950009;29;20263;-82
2021/12/30 09:11:26;;;;;;;19.45;15.13;;;;;;;6.40;81.51;101800.75;4951133;28;20502;-83
2021/12/30 09:13:53;;;;;;;18.98;16.27;;;;;;;5.70;81.80;101686.59;4966330;28;20141;-82
2021/12/30 09:16:19;;;;;;;15.48;13.85;;;;;;;6.27;81.72;101791.78;4965829;28;20488;-81
2021/12/30 09:18:46;;;;;;;19.08;15.82;;;;;;;6.39;81.61;101796.44;4965415;28;20508;-80
2021/12/30 09:21:13;;;;;;;16.60;14.77;;;;;;;6.10;80.84;101740.78;4965480;28;20055;-81
2021/12/30 09:23:39;;;;;;;16.48;14.70;;;;;;;6.34;81.38;101782.63;4965597;28;20050;-81
2021/12/30 09:26:06;;;;;;;20.33;14.65;;;;;;;6.29;81.60;101774.09;4965555;28;20134;-83
2021/12/30 09:28:33;;;;;;;15.50;13.45;;;;;;;6.27;81.26;101778.59;4951223;28;20051;-82
2021/12/30 09:31:00;;;;;;;14.55;13.02;;;;;;;6.12;81.87;101759.16;4965467;28;20055;-81
2021/12/30 09:33:27;;;;;;;16.30;13.98;;;;;;;6.14;82.19;101771.34;4966915;28;20551;-83
2021/12/30 09:35:54;;;;;;;16.45;14.13;;;;;;;6.16;82.12;101764.16;4965871;28;20546;-83
2021/12/30 09:38:20;;;;;;;17.60;13.05;;;;;;;6.31;82.01;101777.50;4950864;28;20058;-83
2021/12/30 09:40:47;;;;;;;14.80;13.25;;;;;;;6.17;81.77;101742.16;4950725;28;20077;-82
2021/12/30 09:43:15;;;;;;;16.00;14.35;;;;;;;4.65;81.70;101502.31;4965204;28;20058;-83
2021/12/30 09:45:43;;;;;;;16.70;14.50;;;;;;;5.57;82.18;101660.03;4965421;28;20061;-84
2021/12/30 09:48:11;;;;;;;15.70;13.40;;;;;;;6.36;82.31;101800.06;4950683;28;20498;-83
2021/12/30 09:50:44;;;;;;;14.82;12.90;;;;;;;6.50;82.75;101812.53;4965284;28;20110;-84
2021/12/30 09:53:11;;;;;;;17.45;15.43;;;;;;;6.28;81.91;101764.47;4950785;28;20149;-83
2021/12/30 09:55:39;;;;;;;15.73;13.90;;;;;;;6.62;81.91;101811.03;4950327;28;20130;-82
2021/12/30 09:58:07;;;;;;;15.30;13.70;;;;;;;6.60;81.71;101800.56;4965049;28;20050;-82
2021/12/30 10:00:36;;;;;;;16.52;14.65;;;;;;;6.49;81.49;101781.81;4950044;28;20055;-83
2021/12/30 10:03:03;;;;;;;17.80;15.07;;;;;;;6.70;81.70;101826.44;4964874;28;20063;-81
2021/12/30 10:05:33;;;;;;;17.63;14.43;;;;;;;6.50;81.54;101787.94;4964805;28;20043;-82
2021/12/30 10:08:12;;;;;;;19.15;15.23;;;;;;;6.31;80.77;101745.84;4964712;28;20498;-80
2021/12/30 10:10:40;;;;;;;18.15;14.93;;;;;;;6.26;81.45;101737.31;4948752;28;20290;-83
2021/12/30 10:13:29;;;;;;;17.15;14.27;;;;;;;6.76;80.29;101812.94;4964801;28;20067;-83
2021/12/30 10:16:16;;;;;;;17.25;14.27;;;;;;;6.68;81.03;101807.22;4948484;29;20333;-83
2021/12/30 10:18:56;;;;;;;16.73;15.02;;;;;;;6.71;81.20;101822.91;4948744;29;20114;-81
2021/12/30 10:21:41;;;;;;;17.45;14.73;;;;;;;6.70;81.28;101810.63;4948625;29;20090;-83
2021/12/30 10:24:10;;;;;;;16.30;14.32;;;;;;;6.78;81.41;101819.00;4949874;28;20051;-82
2021/12/30 10:26:47;;;;;;;19.38;17.08;;;;;;;6.68;80.67;101792.25;4948563;29;20051;-83
2021/12/30 10:29:14;;;;;;;17.63;14.73;;;;;;;6.78;80.77;101790.81;4948557;28;20483;-84
2021/12/30 10:31:42;;;;;;;20.23;16.85;;;;;;;6.90;80.85;101814.84;4948612;29;20106;-82
2021/12/30 10:34:12;;;;;;;26.00;19.17;;;;;;;6.82;80.80;101796.75;4948515;29;20075;-83
2021/12/30 10:36:42;;;;;;;28.25;19.98;;;;;;;7.03;80.86;101839.63;4949851;28;20134;-82
2021/12/30 10:39:27;;;;;;;28.38;21.27;;;;;;;6.70;80.51;101778.94;4949931;28;20141;-84
2021/12/30 10:42:09;;;;;;;32.50;24.20;;;;;;;7.19;81.01;101847.59;4948600;29;20059;-83
2021/12/30 10:44:58;;;;;;;25.15;21.67;;;;;;;7.22;80.88;101837.69;4948588;29;20057;-83
2021/12/30 10:47:34;;;;;;;32.03;24.40;;;;;;;6.99;80.16;101809.91;4948398;29;20047;-83
2021/12/30 10:50:10;;;;;;;31.70;24.67;;;;;;;6.64;80.53;101759.03;4965784;28;20066;-84
2021/12/30 10:52:46;;;;;;;32.15;23.92;;;;;;;7.27;79.55;101866.50;4957626;29;20119;-84
2021/12/30 10:55:14;;;;;;;31.13;22.73;;;;;;;7.26;79.88;101868.28;4959928;29;20119;-83
2021/12/30 10:57:42;;;;;;;32.60;22.80;;;;;;;6.96;79.60;101827.69;4959480;29;20051;-83
2021/12/30 11:00:09;;;;;;;33.95;24.63;;;;;;;7.11;79.39;101837.41;4958828;29;20051;-83
2021/12/30 11:02:36;;;;;;;33.75;25.42;;;;;;;7.24;79.70;101858.75;4949228;29;20059;-84
2021/12/30 11:05:10;;;;;;;32.63;25.98;;;;;;;7.00;79.95;101835.38;4947673;29;20186;-83
2021/12/30 11:07:42;;;;;;;29.25;23.67;;;;;;;7.28;80.04;101876.13;4949327;28;20184;-82
2021/12/30 11:10:11;;;;;;;36.33;25.05;;;;;;;7.41;79.79;101882.44;4948679;29;20043;-83
2021/12/30 11:12:46;;;;;;;30.08;23.70;;;;;;;6.89;79.67;101790.22;4947789;29;20051;-84
2021/12/30 11:15:21;;;;;;;36.85;24.48;;;;;;;6.90;79.70;101806.94;4947680;29;20081;-82
2021/12/30 11:17:49;;;;;;;27.30;23.00;;;;;;;7.39;79.98;101870.25;4947623;29;20150;-86
2021/12/30 11:20:18;;;;;;;28.40;22.73;;;;;;;7.23;78.93;101839.41;4947594;29;20130;-85
2021/12/30 11:22:47;;;;;;;31.38;23.83;;;;;;;7.04;78.98;101815.78;4947953;28;20582;-83
2021/12/30 11:25:17;;;;;;;32.58;24.13;;;;;;;7.29;79.08;101856.69;4948878;28;20083;-85